Norcross, GA

6:11 AM EST on December 28, 2014 (GMT -0500)
City of Berkeley Lake | Change Station
CLOSE
Current Station
Personal Weather Station
Location: Berkeley Lake, GA
Elevation: 1010 ft
Nearby Weather Stations
Active Advisory: Areal Flood Watch

Elev 1010 ft 33.98 °N, 84.18 °W | Updated 1 minute ago

Rain
Rain
52.5 °F
Feels Like 52.5 °F
N
1.0
Wind Variable Wind from WNW
Gusts 1.0 mph

Today
High -- | Low -- °F
--% Chance of Precip.
Yesterday
High -- | Low -- °F
Precip. -- in
7:41 AM 5:35 PM
Waxing Crescent, 46% visible
Pressure 30.08 in
Visibility 5.0 miles
Clouds Scattered Clouds 500 ft
Scattered Clouds 4300 ft
Overcast 5500 ft
Dew Point 50 °F
Humidity 90%
Rainfall 0.77 in
Snow Depth Not available.
UV 0 out of 12
Pollen 1.30 out of 12
Air Quality Not available.
Flu Activity Not available.
SPECI KPDK 281105Z AUTO 14004KT 5SM -RA BR SCT005 SCT043 OVC055 12/12 A3008 RMK AO2 RAB1055 P0001

More Conditions Fewer Conditions

Pressure 30.08 in
Visibility 5.0 miles
Clouds Scattered Clouds 500 ft
Scattered Clouds 4300 ft
Overcast 5500 ft
Dew Point 50 °F
Humidity 90%
Rainfall 0.77 in
Snow Depth Not available.
UV 0 out of 12
Pollen 1.30 out of 12
Air Quality Not available.
Flu Activity Not available.
SPECI KPDK 281105Z AUTO 14004KT 5SM -RA BR SCT005 SCT043 OVC055 12/12 A3008 RMK AO2 RAB1055 P0001

More Conditions Fewer Conditions

10-Day Weather Forecast

Almanac

Astronomy

Dec. 28, 2014 Rise Set
Actual Time
Civil Twilight
Nautical Twilight
Astronomical Twilight
Moon
Length of Visible Light
Length of Day
Tomorrow will be .
, % of the Moon is Illuminated

Today's Extremes

State Highs State Lows

Community

WunderPhotos

Upload Photos

1,781,232 photos uploaded!

WunderBlogs® & News

Nearby

Air Quality

  Air Quality AQ Index Pollutant
Not available.

Snow Depth

Station Depth Elevation

Earthquake Activity

City Distance Mag. Time & Date
Minimum magnitude displayed is 2.5.

Coastal Water Temperatures

Place Temperature

Nearby Weather Stations